createdAt,value
2018-01-12T00:01:06.854Z,15.30
2018-01-12T00:03:34.913Z,14.80
2018-01-12T00:06:03.758Z,14.53
2018-01-12T00:08:31.814Z,13.63
2018-01-12T00:11:00.318Z,15.70
2018-01-12T00:13:28.502Z,15.57
2018-01-12T00:15:56.561Z,15.90
2018-01-12T00:18:24.630Z,13.80
2018-01-12T00:20:52.676Z,15.03
2018-01-12T00:23:21.517Z,14.70
2018-01-12T00:25:49.569Z,14.45
2018-01-12T00:28:19.193Z,13.60
2018-01-12T00:30:47.698Z,16.02
2018-01-12T00:33:15.865Z,15.53
2018-01-12T00:35:43.941Z,15.17
2018-01-12T00:38:12.009Z,14.97
2018-01-12T00:40:40.065Z,13.90
2018-01-12T00:43:08.117Z,12.80
2018-01-12T00:45:37.750Z,14.07
2018-01-12T00:48:05.799Z,16.75
2018-01-12T00:50:34.631Z,13.27
2018-01-12T00:53:02.677Z,13.87
2018-01-12T00:55:31.501Z,11.43
2018-01-12T00:57:59.558Z,15.40
2018-01-12T01:00:27.679Z,14.03
2018-01-12T01:02:55.726Z,15.00
2018-01-12T01:05:23.834Z,15.37
2018-01-12T01:07:51.974Z,13.70
2018-01-12T01:10:21.353Z,14.10
2018-01-12T01:12:50.162Z,14.53
2018-01-12T01:15:18.390Z,14.07
2018-01-12T01:17:46.460Z,16.67
2018-01-12T01:20:14.542Z,16.47
2018-01-12T01:22:42.599Z,13.77
2018-01-12T01:25:10.658Z,14.93
2018-01-12T01:27:38.772Z,15.20
2018-01-12T01:30:06.950Z,14.10
2018-01-12T01:32:35.010Z,14.00
2018-01-12T01:35:03.110Z,16.37
2018-01-12T01:37:31.153Z,14.60
2018-01-12T01:40:00.072Z,11.00
2018-01-12T01:42:28.146Z,12.67
2018-01-12T01:44:56.230Z,14.80
2018-01-12T01:47:24.281Z,12.80
2018-01-12T01:49:53.198Z,13.80
2018-01-12T01:52:21.274Z,13.37
2018-01-12T01:54:49.343Z,17.00
2018-01-12T01:57:17.394Z,16.10
2018-01-12T01:59:45.450Z,15.10
2018-01-12T02:02:14.265Z,14.90
2018-01-12T02:04:42.342Z,15.60
2018-01-12T02:07:10.388Z,16.60
2018-01-12T02:09:39.238Z,15.30
2018-01-12T02:12:07.285Z,16.40
2018-01-12T02:14:35.390Z,18.90
2018-01-12T02:17:03.439Z,18.33
2018-01-12T02:19:31.556Z,17.20
2018-01-12T02:21:59.613Z,17.13
2018-01-12T02:24:28.218Z,17.87
2018-01-12T02:26:56.270Z,16.23
2018-01-12T02:29:24.345Z,16.60
2018-01-12T02:31:52.435Z,18.40
2018-01-12T02:34:20.515Z,18.30
2018-01-12T02:36:49.974Z,18.60
2018-01-12T02:39:19.233Z,17.73
2018-01-12T02:41:47.306Z,21.70
2018-01-12T02:44:15.361Z,19.70
2018-01-12T02:46:43.455Z,19.97
2018-01-12T02:49:11.513Z,20.60
2018-01-12T02:51:39.597Z,21.30
2018-01-12T02:54:07.682Z,21.60
2018-01-12T02:56:35.750Z,23.23
2018-01-12T02:59:03.794Z,21.53
2018-01-12T03:01:31.913Z,21.83
2018-01-12T03:03:59.981Z,21.00
2018-01-12T03:06:28.102Z,21.57
2018-01-12T03:08:56.949Z,20.80
2018-01-12T03:11:25.014Z,18.40
2018-01-12T03:13:53.063Z,19.70
2018-01-12T03:16:21.128Z,22.30
2018-01-12T03:18:49.783Z,21.40
2018-01-12T03:21:17.841Z,21.47
2018-01-12T03:23:45.921Z,19.80
2018-01-12T03:26:13.987Z,21.47
2018-01-12T03:28:42.217Z,18.00
2018-01-12T03:31:11.042Z,20.93
2018-01-12T03:33:39.093Z,22.10
2018-01-12T03:36:07.925Z,20.03
2018-01-12T03:38:35.982Z,20.40
2018-01-12T03:41:04.097Z,19.20
2018-01-12T03:43:32.158Z,18.90
2018-01-12T03:46:00.252Z,21.70
2018-01-12T03:48:28.297Z,20.17
2018-01-12T03:50:56.358Z,19.40
2018-01-12T03:53:24.482Z,19.25
2018-01-12T03:55:52.551Z,22.73
2018-01-12T03:58:20.626Z,21.10
2018-01-12T04:00:48.693Z,22.03
2018-01-12T04:03:16.741Z,19.50
2018-01-12T04:05:44.863Z,22.67
2018-01-12T04:08:12.950Z,21.57
2018-01-12T04:10:43.224Z,19.97
2018-01-12T04:13:12.058Z,20.60
2018-01-12T04:15:40.118Z,24.43
2018-01-12T04:18:08.164Z,21.80
2018-01-12T04:20:36.288Z,19.00
2018-01-12T04:23:04.326Z,20.40
2018-01-12T04:25:32.388Z,19.07
2018-01-12T04:28:01.227Z,16.97
2018-01-12T04:30:29.306Z,19.07
2018-01-12T04:32:57.492Z,19.20
2018-01-12T04:35:25.670Z,19.50
2018-01-12T04:37:53.721Z,17.17
2018-01-12T04:40:21.814Z,18.48
2018-01-12T04:42:50.924Z,17.40
2018-01-12T04:45:18.995Z,20.37
2018-01-12T04:47:47.045Z,18.07
2018-01-12T04:50:15.137Z,18.20
2018-01-12T04:52:43.190Z,17.30
2018-01-12T04:55:11.298Z,19.60
2018-01-12T04:57:39.375Z,16.80
2018-01-12T05:00:07.459Z,17.83
2018-01-12T05:02:35.523Z,59.73
2018-01-12T05:05:03.606Z,22.63
2018-01-12T05:07:31.686Z,17.90
2018-01-12T05:09:59.862Z,18.77
2018-01-12T05:12:28.047Z,18.77
2018-01-12T05:14:56.181Z,19.70
2018-01-12T05:17:24.263Z,20.00
2018-01-12T05:19:52.324Z,17.50
2018-01-12T05:22:21.178Z,20.88
2018-01-12T05:24:49.238Z,17.47
2018-01-12T05:27:17.306Z,17.73
2018-01-12T05:29:45.365Z,18.43
2018-01-12T05:32:13.466Z,17.87
2018-01-12T05:34:41.537Z,15.97
2018-01-12T05:37:09.593Z,18.97
2018-01-12T05:39:37.642Z,18.10
2018-01-12T05:42:06.469Z,19.27
2018-01-12T05:44:34.562Z,16.17
2018-01-12T05:47:02.742Z,18.70
2018-01-12T05:49:30.818Z,20.43
2018-01-12T05:51:58.897Z,17.40
2018-01-12T05:54:26.965Z,15.70
2018-01-12T05:56:55.106Z,14.03
2018-01-12T05:59:23.154Z,15.47
2018-01-12T06:05:14.879Z,16.37
2018-01-12T06:07:43.730Z,15.07
2018-01-12T06:10:11.778Z,18.43
2018-01-12T06:12:39.889Z,16.93
2018-01-12T06:15:07.941Z,16.83
2018-01-12T06:17:36.419Z,18.17
2018-01-12T06:20:04.536Z,15.63
2018-01-12T06:22:32.594Z,13.00
2018-01-12T06:25:00.679Z,14.47
2018-01-12T06:27:28.760Z,13.87
2018-01-12T06:29:56.814Z,14.37
2018-01-12T06:32:24.877Z,14.20
2018-01-12T06:34:52.982Z,11.50
2018-01-12T06:37:21.489Z,14.00
2018-01-12T06:39:49.645Z,13.13
2018-01-12T06:42:17.714Z,12.77
2018-01-12T06:44:45.797Z,14.80
2018-01-12T06:47:13.865Z,12.60
2018-01-12T06:49:43.821Z,17.40
2018-01-12T06:52:11.873Z,11.07
2018-01-12T06:54:39.950Z,10.10
2018-01-12T06:57:08.021Z,10.57
2018-01-12T06:59:36.081Z,10.27
2018-01-12T07:02:04.250Z,10.10
2018-01-12T07:04:32.370Z,10.53
2018-01-12T07:07:00.529Z,10.67
2018-01-12T07:09:28.634Z,10.83
2018-01-12T07:11:56.684Z,10.57
2018-01-12T07:14:24.742Z,11.17
2018-01-12T07:16:52.803Z,11.30
2018-01-12T07:19:22.070Z,12.23
2018-01-12T07:22:07.824Z,12.30
2018-01-12T07:24:35.883Z,14.27
2018-01-12T07:27:03.946Z,12.60
2018-01-12T07:29:32.055Z,12.47
2018-01-12T07:32:00.234Z,16.57
2018-01-12T07:34:28.286Z,14.20
2018-01-12T07:36:56.358Z,11.10
2018-01-12T07:39:24.410Z,10.70
2018-01-12T07:41:52.480Z,12.10
2018-01-12T07:44:22.439Z,10.47
2018-01-12T07:46:50.506Z,10.67
2018-01-12T07:49:18.558Z,9.57
2018-01-12T07:51:47.394Z,13.57
2018-01-12T07:54:15.451Z,10.27
2018-01-12T07:56:43.515Z,10.97
2018-01-12T07:59:11.622Z,11.57
2018-01-12T08:01:45.301Z,13.37
2018-01-12T08:04:13.429Z,14.07
2018-01-12T08:06:41.591Z,12.27
2018-01-12T08:09:09.642Z,11.17
2018-01-12T08:11:37.733Z,13.70
2018-01-12T08:14:06.742Z,13.27
2018-01-12T08:16:34.793Z,14.00
2018-01-12T08:19:02.853Z,12.03
2018-01-12T08:21:30.961Z,13.03
2018-01-12T08:23:59.025Z,11.52
2018-01-12T08:26:27.113Z,11.88
2018-01-12T08:28:55.193Z,14.63
2018-01-12T08:31:23.266Z,14.97
2018-01-12T08:33:53.464Z,14.48
2018-01-12T08:36:22.184Z,13.65
2018-01-12T08:38:50.253Z,13.93
2018-01-12T08:41:19.326Z,13.90
2018-01-12T08:43:47.386Z,14.70
2018-01-12T08:46:16.200Z,14.37
2018-01-12T08:48:44.266Z,14.10
2018-01-12T08:51:12.383Z,15.20
2018-01-12T08:53:40.565Z,14.93
2018-01-12T08:56:08.970Z,14.10
2018-01-12T08:58:38.537Z,16.00
2018-01-12T09:01:06.642Z,13.27
2018-01-12T09:03:34.700Z,16.73
2018-01-12T09:06:02.753Z,16.10
2018-01-12T09:08:30.821Z,16.83
2018-01-12T09:10:58.869Z,16.27
2018-01-12T09:13:45.658Z,15.50
2018-01-12T09:16:13.726Z,14.87
2018-01-12T09:18:59.561Z,13.90
2018-01-12T09:21:27.608Z,13.82
2018-01-12T09:23:56.437Z,13.33
2018-01-12T09:26:24.485Z,12.10
2018-01-12T09:28:54.091Z,13.07
2018-01-12T09:31:39.682Z,14.20
2018-01-12T09:37:16.400Z,12.27
2018-01-12T09:39:45.323Z,13.77
2018-01-12T09:42:13.361Z,15.32
2018-01-12T09:44:41.429Z,15.47
2018-01-12T09:47:22.023Z,15.17
2018-01-12T09:49:50.103Z,14.00
2018-01-12T09:52:18.164Z,14.40
2018-01-12T09:54:46.237Z,14.40
2018-01-12T09:57:14.283Z,14.60
2018-01-12T09:59:44.250Z,14.57
2018-01-12T10:02:12.318Z,13.90
2018-01-12T10:04:40.401Z,14.50
2018-01-12T10:07:19.933Z,14.07
2018-01-12T10:09:49.503Z,13.53
2018-01-12T10:12:18.314Z,14.02
2018-01-12T10:14:46.377Z,14.50
2018-01-12T10:17:14.485Z,13.23
2018-01-12T10:20:02.466Z,15.27
2018-01-12T10:22:31.311Z,13.33
2018-01-12T10:24:59.370Z,13.13
2018-01-12T10:27:27.436Z,13.82
2018-01-12T10:29:57.354Z,13.40
2018-01-12T10:32:26.309Z,14.50
2018-01-12T10:35:12.213Z,14.00
2018-01-12T10:37:40.304Z,14.57
2018-01-12T10:43:18.513Z,13.87
2018-01-12T10:46:04.753Z,15.50
2018-01-12T10:48:39.661Z,13.55
2018-01-12T10:54:15.369Z,12.87
2018-01-12T10:56:44.196Z,14.20
2018-01-12T10:59:12.354Z,14.33
2018-01-12T11:01:41.188Z,16.00
2018-01-12T11:04:09.321Z,12.97
2018-01-12T11:06:37.402Z,14.20
2018-01-12T11:09:05.510Z,12.93
2018-01-12T11:11:33.580Z,13.77
2018-01-12T11:14:01.649Z,12.90
2018-01-12T11:16:29.717Z,15.13
2018-01-12T11:18:57.777Z,14.55
2018-01-12T11:21:25.837Z,14.63
2018-01-12T11:23:54.660Z,13.77
2018-01-12T11:26:23.277Z,16.45
2018-01-12T11:28:51.348Z,16.83
2018-01-12T11:31:20.258Z,15.20
2018-01-12T11:33:48.317Z,15.50
2018-01-12T11:36:16.619Z,15.37
2018-01-12T11:38:44.748Z,14.97
2018-01-12T11:41:13.549Z,13.10
2018-01-12T11:43:41.622Z,14.60
2018-01-12T11:46:09.670Z,12.87
2018-01-12T11:48:38.527Z,13.20
2018-01-12T11:51:06.586Z,14.77
2018-01-12T11:53:34.677Z,14.57
2018-01-12T11:56:02.734Z,15.13
2018-01-12T11:58:30.825Z,15.23
2018-01-12T12:00:58.882Z,15.90
2018-01-12T12:03:26.980Z,15.63
2018-01-12T12:05:55.038Z,16.57
2018-01-12T12:08:25.352Z,15.20
2018-01-12T12:10:53.669Z,14.90
2018-01-12T12:13:22.046Z,16.57
2018-01-12T12:15:50.120Z,14.57
2018-01-12T12:18:18.205Z,15.63
2018-01-12T12:20:46.377Z,15.63
2018-01-12T12:23:14.454Z,14.63
2018-01-12T12:25:42.946Z,17.98
2018-01-12T12:28:11.014Z,16.50
2018-01-12T12:30:39.095Z,17.20
2018-01-12T12:33:07.146Z,17.50
2018-01-12T12:35:35.212Z,15.13
2018-01-12T12:38:03.262Z,16.27
2018-01-12T12:43:07.329Z,15.63
2018-01-12T12:45:35.434Z,16.83
2018-01-12T12:48:03.939Z,16.30
2018-01-12T12:50:32.309Z,18.27
2018-01-12T12:53:00.796Z,18.85
2018-01-12T12:55:29.151Z,16.08
2018-01-12T12:57:57.543Z,16.83
2018-01-12T13:00:26.094Z,17.33
2018-01-12T13:02:56.182Z,16.25
2018-01-12T13:05:24.765Z,18.05
2018-01-12T13:07:53.233Z,18.50
2018-01-12T13:10:21.738Z,18.70
2018-01-12T13:12:50.249Z,17.27
2018-01-12T13:15:18.770Z,20.23
2018-01-12T13:17:47.288Z,19.53
2018-01-12T13:20:15.774Z,25.63
2018-01-12T13:22:44.261Z,17.87
2018-01-12T13:25:12.849Z,17.87
2018-01-12T13:27:41.436Z,18.83
2018-01-12T13:30:09.811Z,17.20
2018-01-12T13:32:38.305Z,16.97
2018-01-12T13:35:06.892Z,16.77
2018-01-12T13:37:35.373Z,16.33
2018-01-12T13:40:03.959Z,18.30
2018-01-12T13:42:32.391Z,18.87
2018-01-12T13:45:01.656Z,20.88
2018-01-12T13:47:30.239Z,17.97
2018-01-12T13:49:58.739Z,18.53
2018-01-12T13:52:27.212Z,16.37
2018-01-12T13:54:55.790Z,16.67
2018-01-12T13:57:25.101Z,16.90
2018-01-12T13:59:53.587Z,16.40
2018-01-12T14:02:22.013Z,15.03
2018-01-12T14:04:51.267Z,17.23
2018-01-12T14:07:19.762Z,15.37
2018-01-12T14:09:48.352Z,18.27
2018-01-12T14:12:16.832Z,16.43
2018-01-12T14:14:45.423Z,14.77
2018-01-12T14:17:13.911Z,15.83
2018-01-12T14:19:42.493Z,15.20
2018-01-12T14:22:11.044Z,16.00
2018-01-12T14:24:39.507Z,17.00
2018-01-12T14:27:08.058Z,15.65
2018-01-12T14:29:36.546Z,16.30
2018-01-12T14:32:04.593Z,15.80
2018-01-12T14:34:32.674Z,18.52
2018-01-12T14:37:00.723Z,16.90
2018-01-12T14:39:28.781Z,19.77
2018-01-12T14:41:57.597Z,19.97
2018-01-12T14:44:25.710Z,19.75
2018-01-12T14:46:54.886Z,18.23
2018-01-12T14:49:22.993Z,18.20
2018-01-12T14:51:51.041Z,18.60
2018-01-12T14:54:19.122Z,18.47
2018-01-12T14:56:47.210Z,19.12
2018-01-12T14:59:15.293Z,16.47
2018-01-12T15:01:43.361Z,19.47
2018-01-12T15:04:12.019Z,17.47
2018-01-12T15:06:40.129Z,17.57
2018-01-12T15:09:08.177Z,19.90
2018-01-12T15:11:36.246Z,20.17
2018-01-12T15:14:04.343Z,21.30
2018-01-12T15:16:32.441Z,20.30
2018-01-12T15:19:00.540Z,22.43
2018-01-12T15:21:28.598Z,20.80
2018-01-12T15:23:56.649Z,22.90
2018-01-12T15:26:25.477Z,21.52
2018-01-12T15:28:53.550Z,22.23
2018-01-12T15:31:21.609Z,21.02
2018-01-12T15:33:49.671Z,24.20
2018-01-12T15:36:17.762Z,22.00
2018-01-12T15:38:45.849Z,25.10
2018-01-12T15:41:13.922Z,22.53
2018-01-12T15:43:41.978Z,21.23
2018-01-12T15:46:10.052Z,24.17
2018-01-12T15:48:38.102Z,23.90
2018-01-12T15:51:06.221Z,22.70
2018-01-12T15:53:34.293Z,23.23
2018-01-12T15:56:02.358Z,24.30
2018-01-12T15:58:30.405Z,24.75
2018-01-12T16:00:58.977Z,25.13
2018-01-12T16:03:28.751Z,36.13
2018-01-12T16:05:57.637Z,25.42
2018-01-12T16:08:25.933Z,23.27
2018-01-12T16:10:53.994Z,24.77
2018-01-12T16:13:22.090Z,24.97
2018-01-12T16:15:50.157Z,24.10
2018-01-12T16:18:18.208Z,22.13
2018-01-12T16:20:46.274Z,22.77
2018-01-12T16:23:14.329Z,20.37
2018-01-12T16:25:43.165Z,20.13
2018-01-12T16:28:11.270Z,21.33
2018-01-12T16:30:39.429Z,22.90
2018-01-12T16:33:07.477Z,23.90
2018-01-12T16:35:35.610Z,24.43
2018-01-12T16:38:03.665Z,22.27
2018-01-12T16:40:31.741Z,22.85
2018-01-12T16:42:59.798Z,21.97
2018-01-12T16:45:27.894Z,21.30
2018-01-12T16:47:56.290Z,20.35
2018-01-12T16:50:24.380Z,19.47
2018-01-12T16:52:52.401Z,20.63
2018-01-12T16:55:20.501Z,18.57
2018-01-12T16:57:48.553Z,20.67
2018-01-12T17:00:16.637Z,22.20
2018-01-12T17:02:44.691Z,21.93
2018-01-12T17:05:13.518Z,18.63
2018-01-12T17:07:41.573Z,20.03
2018-01-12T17:10:09.678Z,33.97
2018-01-12T17:12:37.761Z,20.43
2018-01-12T17:15:05.981Z,20.47
2018-01-12T17:17:34.109Z,20.50
2018-01-12T17:20:02.180Z,19.07
2018-01-12T17:22:30.258Z,17.87
2018-01-12T17:24:58.346Z,19.90
2018-01-12T17:27:27.334Z,21.20
2018-01-12T17:29:57.269Z,21.50
2018-01-12T17:32:26.450Z,21.40
2018-01-12T17:34:54.531Z,19.33
2018-01-12T17:37:22.593Z,19.25
2018-01-12T17:39:50.681Z,20.15
2018-01-12T17:42:18.770Z,21.60
2018-01-12T17:44:47.354Z,20.80
2018-01-12T17:47:15.426Z,19.30
2018-01-12T17:49:43.486Z,19.30
2018-01-12T17:52:11.590Z,20.43
2018-01-12T17:54:39.653Z,19.00
2018-01-12T17:57:07.717Z,19.60
2018-01-12T17:59:35.813Z,19.45
2018-01-12T18:02:03.986Z,21.00
2018-01-12T18:04:32.881Z,21.67
2018-01-12T18:07:00.953Z,19.55
2018-01-12T18:09:29.001Z,25.43
2018-01-12T18:11:57.105Z,18.63
2018-01-12T18:14:25.192Z,19.80
2018-01-12T18:16:53.257Z,21.57
2018-01-12T18:19:21.313Z,20.07
2018-01-12T18:21:49.486Z,21.13
2018-01-12T18:24:17.541Z,19.17
2018-01-12T18:26:46.373Z,19.70
2018-01-12T18:29:14.635Z,22.67
2018-01-12T18:31:42.681Z,21.73
2018-01-12T18:34:11.537Z,22.20
2018-01-12T18:36:39.617Z,20.20
2018-01-12T18:39:07.665Z,22.57
2018-01-12T18:41:35.733Z,21.63
2018-01-12T18:44:03.790Z,20.63
2018-01-12T18:46:32.634Z,22.02
2018-01-12T18:49:00.708Z,23.10
2018-01-12T18:51:28.774Z,21.47
2018-01-12T18:53:58.169Z,21.42
2018-01-12T18:56:27.350Z,21.70
2018-01-12T18:58:55.422Z,23.40
2018-01-12T19:01:24.249Z,21.27
2018-01-12T19:03:52.306Z,22.10
2018-01-12T19:06:20.366Z,23.58
2018-01-12T19:08:49.205Z,20.65
2018-01-12T19:11:17.271Z,19.40
2018-01-12T19:13:45.383Z,22.40
2018-01-12T19:16:13.386Z,21.33
2018-01-12T19:18:41.441Z,23.30
2018-01-12T19:21:09.595Z,21.48
2018-01-12T19:23:37.669Z,20.50
2018-01-12T19:26:05.753Z,21.57
2018-01-12T19:28:33.920Z,22.13
2018-01-12T19:31:01.977Z,23.60
2018-01-12T19:33:30.040Z,24.10
2018-01-12T19:35:58.872Z,21.00
2018-01-12T19:38:27.791Z,22.40
2018-01-12T19:40:55.975Z,21.92
2018-01-12T19:43:24.783Z,23.70
2018-01-12T19:45:53.596Z,20.70
2018-01-12T19:48:21.743Z,22.17
2018-01-12T19:50:49.854Z,23.90
2018-01-12T19:53:17.894Z,24.17
2018-01-12T19:55:46.745Z,23.10
2018-01-12T19:58:14.868Z,23.23
2018-01-12T20:00:43.005Z,23.00
2018-01-12T20:03:11.060Z,23.03
2018-01-12T20:05:39.119Z,21.77
2018-01-12T20:08:07.234Z,21.90
2018-01-12T20:10:35.282Z,22.47
2018-01-12T20:13:03.434Z,21.30
2018-01-12T20:15:32.254Z,21.30
2018-01-12T20:18:00.409Z,22.30
2018-01-12T20:20:29.637Z,22.50
2018-01-12T20:22:57.962Z,21.85
2018-01-12T20:25:26.073Z,23.80
2018-01-12T20:27:54.893Z,21.17
2018-01-12T20:30:22.968Z,22.90
2018-01-12T20:32:51.066Z,22.70
2018-01-12T20:35:19.160Z,22.53
2018-01-12T20:37:47.325Z,23.03
2018-01-12T20:40:15.540Z,20.87
2018-01-12T20:42:43.645Z,21.80
2018-01-12T20:45:12.504Z,23.20
2018-01-12T20:47:40.555Z,23.40
2018-01-12T20:50:08.610Z,21.77
2018-01-12T20:52:37.570Z,21.60
2018-01-12T20:55:06.420Z,20.00
2018-01-12T20:57:35.314Z,22.20
2018-01-12T21:00:03.374Z,22.17
2018-01-12T21:02:31.433Z,20.10
2018-01-12T21:04:59.537Z,20.60
2018-01-12T21:07:28.341Z,18.70
2018-01-12T21:09:56.435Z,33.70
2018-01-12T21:12:24.570Z,20.63
2018-01-12T21:14:52.665Z,21.47
2018-01-12T21:17:20.790Z,20.90
2018-01-12T21:19:50.453Z,19.50
2018-01-12T21:22:18.541Z,21.53
2018-01-12T21:24:46.588Z,21.37
2018-01-12T21:27:14.678Z,21.10
2018-01-12T21:29:42.736Z,19.60
2018-01-12T21:32:10.799Z,19.73
2018-01-12T21:34:38.904Z,20.00
2018-01-12T21:37:06.962Z,18.80
2018-01-12T21:39:35.103Z,19.40
2018-01-12T21:42:03.275Z,19.37
2018-01-12T21:44:31.321Z,18.17
2018-01-12T21:46:59.420Z,20.83
2018-01-12T21:49:29.392Z,19.73
2018-01-12T21:51:58.562Z,19.10
2018-01-12T21:54:27.419Z,21.17
2018-01-12T21:56:55.474Z,19.10
2018-01-12T21:59:23.571Z,20.00
2018-01-12T22:01:52.454Z,21.43
2018-01-12T22:04:20.530Z,22.00
2018-01-12T22:06:48.593Z,21.20
2018-01-12T22:09:17.455Z,21.03
2018-01-12T22:11:46.601Z,22.60
2018-01-12T22:14:14.669Z,20.80
2018-01-12T22:16:42.911Z,22.40
2018-01-12T22:19:11.751Z,21.87
2018-01-12T22:21:39.827Z,21.00
2018-01-12T22:24:07.902Z,21.70
2018-01-12T22:26:35.981Z,20.12
2018-01-12T22:29:04.053Z,21.27
2018-01-12T22:31:32.101Z,23.77
2018-01-12T22:34:00.166Z,19.73
2018-01-12T22:36:29.814Z,20.30
2018-01-12T22:38:58.988Z,21.67
2018-01-12T22:41:27.092Z,21.10
2018-01-12T22:43:55.162Z,18.85
2018-01-12T22:46:23.209Z,22.53
2018-01-12T22:48:51.741Z,21.47
2018-01-12T22:51:19.804Z,18.50
2018-01-12T22:53:47.894Z,19.73
2018-01-12T22:56:15.961Z,21.97
2018-01-12T22:58:44.017Z,17.47
2018-01-12T23:01:12.115Z,20.63
2018-01-12T23:03:40.174Z,18.80
2018-01-12T23:06:08.227Z,19.87
2018-01-12T23:08:37.054Z,18.47
2018-01-12T23:11:05.109Z,20.13
2018-01-12T23:13:33.170Z,19.93
2018-01-12T23:16:01.226Z,19.97
2018-01-12T23:18:29.986Z,19.33
2018-01-12T23:20:58.037Z,18.60
2018-01-12T23:23:26.093Z,20.13
2018-01-12T23:25:54.137Z,20.40
2018-01-12T23:28:22.205Z,20.53
2018-01-12T23:30:51.561Z,18.90
2018-01-12T23:33:19.704Z,19.17
2018-01-12T23:35:48.560Z,17.33
2018-01-12T23:38:17.453Z,17.47
2018-01-12T23:40:45.506Z,17.57
2018-01-12T23:43:13.619Z,18.73
2018-01-12T23:45:41.657Z,16.23
2018-01-12T23:48:09.759Z,14.90
2018-01-12T23:50:38.059Z,14.47
2018-01-12T23:53:06.225Z,15.88
2018-01-12T23:55:34.273Z,15.90
2018-01-12T23:58:02.373Z,15.32
